Time;durP1;ratioP1;P1;durP2;ratioP2;P2;SDS_P1;SDS_P2;PMS_P1;PMS_P2;Temp;Humidity;BMP_temperature;BMP_pressure;BME280_temperature;BME280_humidity;BME280_pressure;Samples;Min_cycle;Max_cycle;Signal;HPM_P1;HPM_P2
2023/08/13 00:03:52;;;;;;;6.00;3.50;;;;;;;23.23;91.54;100248.27;181099;1259;44143;-89
2023/08/13 00:07:56;;;;;;;6.90;3.50;;;;;;;23.29;91.66;100258.20;181093;1259;58184;-89
2023/08/13 00:11:59;;;;;;;3.80;3.10;;;;;;;23.33;91.68;100259.61;181084;1259;44593;-89
2023/08/13 00:16:03;;;;;;;7.30;4.00;;;;;;;23.35;91.80;100260.15;181150;1259;43737;-89
2023/08/13 00:20:07;;;;;;;4.90;3.20;;;;;;;23.35;92.13;100258.30;181104;1259;44083;-89
2023/08/13 00:24:10;;;;;;;4.90;2.60;;;;;;;23.36;92.62;100263.90;181199;1259;43717;-89
2023/08/13 00:28:14;;;;;;;3.70;2.80;;;;;;;23.41;93.11;100264.37;181172;1259;58237;-89
2023/08/13 00:32:17;;;;;;;15.50;5.60;;;;;;;23.43;93.15;100265.18;181165;1259;43876;-88
2023/08/13 00:36:21;;;;;;;4.90;3.50;;;;;;;23.41;93.11;100271.30;181139;1259;43941;-89
2023/08/13 00:40:24;;;;;;;7.40;3.30;;;;;;;23.36;92.89;100274.61;181137;1259;43805;-89
2023/08/13 00:44:28;;;;;;;11.40;4.50;;;;;;;23.37;92.90;100279.01;181170;1259;44220;-89
2023/08/13 00:48:31;;;;;;;11.10;4.90;;;;;;;23.40;92.57;100283.65;181341;1259;58031;-90
2023/08/13 00:52:35;;;;;;;11.60;4.10;;;;;;;23.42;92.46;100285.77;181093;1259;43875;-89
2023/08/13 00:56:41;;;;;;;5.90;3.50;;;;;;;23.38;91.69;100289.91;181173;1259;43846;-90
2023/08/13 01:00:44;;;;;;;6.70;4.30;;;;;;;23.28;92.27;100292.55;181068;1263;43778;-89
2023/08/13 01:04:48;;;;;;;7.20;4.20;;;;;;;23.20;92.82;100298.99;181202;1259;44059;-89
2023/08/13 01:09:26;;;;;;;3.40;3.10;;;;;;;23.12;92.87;100293.77;181167;1259;58242;-89
2023/08/13 01:13:43;;;;;;;5.50;3.50;;;;;;;23.03;92.79;100297.55;181129;1260;44052;-90
2023/08/13 01:17:52;;;;;;;4.30;3.70;;;;;;;23.01;93.78;100299.83;181136;1259;44114;-89
2023/08/13 01:21:55;;;;;;;7.00;4.00;;;;;;;22.99;93.07;100299.29;181106;1259;43744;-89
2023/08/13 01:26:05;;;;;;;15.90;3.50;;;;;;;22.96;93.44;100299.52;181155;1259;43841;-89
2023/08/13 01:30:20;;;;;;;134.30;19.60;;;;;;;22.94;93.53;100291.98;181052;1259;60543;-88
2023/08/13 01:34:24;;;;;;;9.80;4.90;;;;;;;22.89;93.72;100300.27;181145;1261;43728;-89
2023/08/13 01:38:30;;;;;;;5.70;3.80;;;;;;;22.78;93.67;100300.10;181071;1259;44271;-89
2023/08/13 01:42:33;;;;;;;4.40;2.80;;;;;;;22.51;95.72;100301.82;181138;1259;43763;-89
2023/08/13 01:46:37;;;;;;;6.10;3.00;;;;;;;22.24;96.23;100302.80;181158;1259;43894;-88
2023/08/13 01:50:40;;;;;;;4.20;3.30;;;;;;;22.20;96.57;100303.95;181065;1259;58224;-88
2023/08/13 01:54:44;;;;;;;10.20;5.30;;;;;;;22.20;97.99;100303.70;181237;1259;44166;-89
2023/08/13 01:58:47;;;;;;;7.80;3.30;;;;;;;21.98;100.00;100299.57;181050;1261;44246;-89
2023/08/13 02:02:50;;;;;;;11.60;4.30;;;;;;;21.83;100.00;100303.33;181051;1259;44168;-89
2023/08/13 02:06:54;;;;;;;5.20;3.90;;;;;;;21.69;100.00;100302.95;181080;1259;44312;-89
2023/08/13 02:10:58;;;;;;;6.30;4.40;;;;;;;21.72;100.00;100303.64;181142;1259;59563;-89
2023/08/13 02:15:02;;;;;;;5.30;3.50;;;;;;;21.77;100.00;100308.88;181182;1259;48423;-89
2023/08/13 02:19:05;;;;;;;4.80;3.50;;;;;;;21.87;100.00;100309.10;181115;1259;44004;-90
2023/08/13 02:23:09;;;;;;;5.20;3.30;;;;;;;21.94;100.00;100316.88;181153;1259;44046;-90
2023/08/13 02:27:13;;;;;;;6.20;3.00;;;;;;;21.99;100.00;100319.98;181267;1259;43670;-89
2023/08/13 02:31:17;;;;;;;3.90;3.50;;;;;;;22.03;100.00;100323.27;181106;1259;57963;-89
2023/08/13 02:35:20;;;;;;;4.50;3.60;;;;;;;22.09;100.00;100328.24;181130;1259;43741;-89
2023/08/13 02:39:24;;;;;;;4.20;2.60;;;;;;;22.14;100.00;100330.02;181063;1261;43980;-88
2023/08/13 02:43:48;;;;;;;3.40;2.20;;;;;;;22.18;100.00;100328.87;181177;1259;44099;-89
2023/08/13 02:47:52;;;;;;;5.80;2.50;;;;;;;22.22;100.00;100330.23;181050;1259;44015;-89
2023/08/13 02:51:56;;;;;;;3.90;2.40;;;;;;;22.28;100.00;100332.74;181136;1259;58741;-89
2023/08/13 02:55:59;;;;;;;4.10;3.30;;;;;;;22.34;100.00;100337.10;181058;1259;43886;-89
2023/08/13 03:00:03;;;;;;;7.90;2.70;;;;;;;22.39;100.00;100339.11;181074;1259;50817;-90
2023/08/13 03:04:06;;;;;;;3.00;2.70;;;;;;;22.43;100.00;100342.15;180912;1259;44025;-89
2023/08/13 03:08:10;;;;;;;3.30;2.70;;;;;;;22.45;100.00;100352.00;181158;1259;43715;-90
2023/08/13 03:12:14;;;;;;;2.70;2.40;;;;;;;22.51;100.00;100352.34;181230;1258;57175;-89
2023/08/13 03:16:19;;;;;;;4.80;2.30;;;;;;;22.53;100.00;100349.63;181170;1258;44324;-89
2023/08/13 03:20:22;;;;;;;2.60;2.40;;;;;;;22.54;100.00;100348.47;181094;1259;44668;-89
2023/08/13 03:24:26;;;;;;;5.60;2.70;;;;;;;22.54;100.00;100348.41;181177;1259;44085;-90
2023/08/13 03:28:29;;;;;;;6.10;2.80;;;;;;;22.52;100.00;100351.92;181133;1258;44103;-89
2023/08/13 03:32:33;;;;;;;4.00;3.00;;;;;;;22.52;100.00;100354.55;181063;1259;59739;-89
2023/08/13 03:36:36;;;;;;;17.10;3.50;;;;;;;22.55;100.00;100355.43;181171;1259;43724;-89
2023/08/13 03:40:40;;;;;;;3.30;2.70;;;;;;;22.54;100.00;100354.55;181248;1258;44235;-89
2023/08/13 03:44:43;;;;;;;5.20;3.00;;;;;;;22.60;100.00;100360.20;181098;1259;43747;-89
2023/08/13 03:48:47;;;;;;;3.90;2.60;;;;;;;22.64;100.00;100356.55;181112;1259;43829;-89
2023/08/13 03:52:50;;;;;;;2.80;2.30;;;;;;;22.62;100.00;100362.08;181271;1259;59603;-89
2023/08/13 03:56:54;;;;;;;2.80;2.20;;;;;;;22.59;100.00;100361.11;181052;1259;43759;-88
2023/08/13 04:01:06;;;;;;;3.70;2.30;;;;;;;22.62;100.00;100365.52;181168;1259;43751;-88
2023/08/13 04:05:11;;;;;;;3.90;2.00;;;;;;;22.64;100.00;100365.77;181167;1260;44113;-89
2023/08/13 04:09:14;;;;;;;2.60;2.30;;;;;;;22.61;100.00;100355.86;181265;1259;44008;-89
2023/08/13 04:13:19;;;;;;;2.90;2.10;;;;;;;22.56;100.00;100353.55;181050;1263;60805;-89
2023/08/13 04:17:22;;;;;;;2.70;2.40;;;;;;;22.48;100.00;100358.64;181194;1259;43884;-88
2023/08/13 04:21:26;;;;;;;2.30;2.10;;;;;;;22.48;100.00;100358.23;181138;1259;43835;-88
2023/08/13 04:25:31;;;;;;;3.20;2.00;;;;;;;22.51;100.00;100361.14;181156;1259;44166;-89
2023/08/13 04:29:34;;;;;;;3.80;1.90;;;;;;;22.53;100.00;100366.40;181246;1259;43638;-89
2023/08/13 04:33:38;;;;;;;4.30;2.60;;;;;;;23.01;100.00;100369.67;181333;1259;60528;-88
2023/08/13 04:37:41;;;;;;;3.20;2.50;;;;;;;23.38;100.00;100367.66;181077;1260;43775;-89
2023/08/13 04:41:44;;;;;;;2.50;2.30;;;;;;;23.78;100.00;100372.05;181185;1259;43973;-89
2023/08/13 04:45:48;;;;;;;2.30;2.10;;;;;;;24.79;97.95;100375.61;181140;1259;44078;-88
2023/08/13 04:49:52;;;;;;;3.70;1.40;;;;;;;25.57;93.06;100375.90;181300;1259;43650;-88
2023/08/13 04:53:55;;;;;;;2.30;1.80;;;;;;;26.44;89.11;100374.20;181253;1262;58093;-88
2023/08/13 04:57:59;;;;;;;1.60;1.50;;;;;;;27.30;84.01;100383.04;181227;1259;43962;-88
2023/08/13 05:02:03;;;;;;;3.20;1.40;;;;;;;27.95;80.19;100375.60;181248;1258;43877;-89
2023/08/13 05:06:07;;;;;;;4.10;1.70;;;;;;;28.44;77.48;100379.15;181168;1259;43962;-89
2023/08/13 05:10:10;;;;;;;10.80;2.80;;;;;;;29.00;75.63;100385.81;180815;1259;579814;-89
2023/08/13 05:14:14;;;;;;;2.90;1.50;;;;;;;29.31;73.00;100390.77;181204;1260;59549;-89
2023/08/13 05:18:17;;;;;;;4.90;1.30;;;;;;;29.50;72.49;100387.75;181201;1262;44157;-88
2023/08/13 05:22:21;;;;;;;5.60;2.40;;;;;;;29.65;71.18;100393.68;181254;1259;43746;-89
2023/08/13 05:26:25;;;;;;;3.80;2.00;;;;;;;29.68;70.45;100391.59;181188;1259;43680;-89
2023/08/13 05:30:28;;;;;;;2.90;1.30;;;;;;;29.47;71.24;100397.01;181159;1259;44009;-89
2023/08/13 05:34:32;;;;;;;2.60;1.90;;;;;;;29.01;73.10;100399.52;181305;1260;60395;-89
2023/08/13 05:38:36;;;;;;;4.70;1.90;;;;;;;28.77;74.44;100403.70;181179;1260;43873;-89
2023/08/13 05:42:39;;;;;;;2.90;1.40;;;;;;;28.45;76.74;100407.52;181196;1259;44513;-89
2023/08/13 05:46:43;;;;;;;2.40;2.00;;;;;;;27.87;78.17;100410.41;181188;1260;44011;-90
2023/08/13 05:50:47;;;;;;;2.10;1.80;;;;;;;26.82;83.23;100420.64;181210;1259;43934;-90
2023/08/13 05:54:50;;;;;;;2.40;2.10;;;;;;;26.28;87.76;100421.98;181145;1260;57946;-89
2023/08/13 05:58:53;;;;;;;3.40;2.30;;;;;;;26.27;88.22;100423.88;181177;1260;43953;-89
2023/08/13 06:02:57;;;;;;;2.80;2.10;;;;;;;26.55;88.60;100426.82;181104;1258;43824;-89
2023/08/13 06:07:03;;;;;;;4.80;2.40;;;;;;;26.37;87.82;100431.97;181175;1259;43804;-89
2023/08/13 06:11:06;;;;;;;2.30;1.60;;;;;;;26.06;88.86;100433.54;181319;1260;43110;-89
2023/08/13 06:15:10;;;;;;;4.20;2.10;;;;;;;26.07;88.74;100427.92;181181;1260;59698;-89
2023/08/13 06:19:14;;;;;;;2.30;2.10;;;;;;;26.10;89.75;100427.50;181233;1260;43975;-89
2023/08/13 06:23:17;;;;;;;5.00;2.50;;;;;;;26.01;90.84;100438.96;181135;1260;44141;-89
2023/08/13 06:27:22;;;;;;;2.40;2.10;;;;;;;25.71;92.98;100435.17;181212;1259;43766;-89
2023/08/13 06:31:26;;;;;;;3.20;2.60;;;;;;;25.50;94.63;100438.89;181119;1260;43688;-89
2023/08/13 06:35:46;;;;;;;3.20;2.10;;;;;;;25.37;96.44;100441.02;181080;1259;59171;-89
2023/08/13 06:39:49;;;;;;;3.00;2.60;;;;;;;25.22;97.09;100447.11;181051;1260;43925;-89
2023/08/13 06:43:53;;;;;;;3.20;2.80;;;;;;;25.09;98.79;100442.89;181109;1259;43952;-89
2023/08/13 06:47:57;;;;;;;3.30;2.40;;;;;;;25.38;98.85;100444.73;180920;1260;44053;-89
2023/08/13 06:52:02;;;;;;;;;;;;;;;25.74;96.70;100445.67;181048;1260;43921;-89
2023/08/13 06:56:13;;;;;;;2.00;1.90;;;;;;;26.37;94.44;100442.66;181113;1259;59293;-89
2023/08/13 07:00:20;;;;;;;3.40;2.30;;;;;;;26.80;91.83;100451.44;180949;1260;43978;-89
2023/08/13 07:04:31;;;;;;;3.00;2.60;;;;;;;27.01;89.01;100454.84;181048;1260;43990;-89
2023/08/13 07:08:38;;;;;;;2.20;1.70;;;;;;;26.98;89.15;100458.66;180933;1260;44094;-89
2023/08/13 07:12:43;;;;;;;4.80;2.30;;;;;;;26.90;89.32;100460.23;181018;1263;43819;-90
2023/08/13 07:16:47;;;;;;;3.00;2.80;;;;;;;26.80;89.89;100461.17;181065;1260;59751;-89
2023/08/13 07:20:52;;;;;;;3.20;2.10;;;;;;;26.91;90.31;100461.86;181163;1260;44122;-89
2023/08/13 07:24:56;;;;;;;5.00;3.20;;;;;;;27.30;88.25;100462.98;181143;1260;43817;-90
2023/08/13 07:29:00;;;;;;;2.60;2.40;;;;;;;27.78;85.35;100456.48;181204;1257;43891;-86
2023/08/13 07:33:05;;;;;;;3.90;1.70;;;;;;;28.30;82.84;100455.55;181295;1257;44141;-86
2023/08/13 07:37:09;;;;;;;3.90;2.30;;;;;;;28.36;82.27;100456.91;181312;1259;57971;-86
2023/08/13 07:41:13;;;;;;;2.20;2.00;;;;;;;28.05;84.08;100464.35;181453;1261;43799;-86
2023/08/13 07:45:18;;;;;;;3.00;2.20;;;;;;;28.02;83.91;100463.73;181283;1257;43616;-86
2023/08/13 07:49:24;;;;;;;3.40;2.20;;;;;;;28.03;83.32;100459.80;181344;1257;43405;-86
2023/08/13 07:53:29;;;;;;;3.00;2.70;;;;;;;28.08;84.66;100463.17;181337;1257;43395;-86
2023/08/13 07:57:34;;;;;;;;;;;;;;;28.29;84.24;100460.15;181601;1257;60150;-86
2023/08/13 08:01:42;;;;;;;2.70;2.40;;;;;;;28.43;84.01;100460.27;181343;1257;44046;-87
2023/08/13 08:05:49;;;;;;;8.70;3.10;;;;;;;28.54;85.20;100462.41;181283;1257;43775;-86
2023/08/13 08:09:53;;;;;;;3.00;2.00;;;;;;;28.73;82.61;100465.65;181285;1257;44448;-86
2023/08/13 08:13:57;;;;;;;3.30;2.40;;;;;;;28.71;82.67;100467.74;181255;1258;43769;-86
2023/08/13 08:18:02;;;;;;;3.70;2.00;;;;;;;28.67;83.34;100465.41;181262;1256;57536;-86
2023/08/13 08:22:06;;;;;;;2.40;2.20;;;;;;;28.86;81.33;100469.00;181197;1256;43853;-86
2023/08/13 08:26:10;;;;;;;2.70;2.20;;;;;;;28.87;82.29;100465.45;181265;1256;43917;-86
2023/08/13 08:30:14;;;;;;;3.30;2.60;;;;;;;28.67;82.89;100465.70;181328;1257;48576;-86
2023/08/13 08:34:19;;;;;;;3.00;1.90;;;;;;;28.50;83.54;100468.64;181321;1257;44009;-86
2023/08/13 08:38:23;;;;;;;2.30;2.10;;;;;;;28.41;81.82;100464.34;181368;1257;58562;-86
2023/08/13 08:42:29;;;;;;;2.00;1.70;;;;;;;28.32;82.98;100463.11;181352;1257;43873;-86
2023/08/13 08:46:33;;;;;;;2.10;1.90;;;;;;;28.14;83.66;100459.54;181614;1257;43812;-86
2023/08/13 08:50:37;;;;;;;2.30;1.30;;;;;;;28.17;82.71;100454.40;181560;1257;43915;-87
2023/08/13 08:54:43;;;;;;;2.90;2.30;;;;;;;28.29;81.31;100448.00;181416;1261;43047;-86
2023/08/13 08:58:49;;;;;;;3.90;1.90;;;;;;;28.52;79.19;100446.35;181321;1257;57544;-85
2023/08/13 09:02:53;;;;;;;2.10;1.90;;;;;;;28.76;79.06;100449.04;181287;1257;43141;-86
2023/08/13 09:07:04;;;;;;;2.40;2.20;;;;;;;28.78;79.15;100445.99;181299;1257;43888;-86
2023/08/13 09:11:11;;;;;;;2.70;2.00;;;;;;;28.65;79.20;100440.15;181265;1262;43819;-88
2023/08/13 09:15:15;;;;;;;1.90;1.70;;;;;;;28.47;79.18;100441.11;181360;1257;43845;-85
2023/08/13 09:19:23;;;;;;;2.20;1.60;;;;;;;28.37;80.11;100442.25;181345;1257;59286;-86
2023/08/13 09:23:28;;;;;;;3.00;1.90;;;;;;;28.31;81.88;100443.33;181245;1257;43881;-86
2023/08/13 09:27:32;;;;;;;2.80;1.40;;;;;;;28.17;81.10;100445.98;181147;1259;43773;-86
2023/08/13 09:31:37;;;;;;;;;;;;;;;28.22;81.70;100441.55;181256;1257;43743;-86
2023/08/13 09:35:42;;;;;;;1.70;1.60;;;;;;;28.40;79.69;100441.46;181409;1257;43551;-85
2023/08/13 09:39:46;;;;;;;1.30;1.10;;;;;;;28.84;77.26;100438.61;181406;1257;58208;-85
2023/08/13 09:43:59;;;;;;;4.10;1.00;;;;;;;29.27;77.42;100435.99;181174;1263;44653;-85
2023/08/13 09:48:21;;;;;;;1.30;1.20;;;;;;;29.25;75.33;100439.86;181305;1257;43937;-86
2023/08/13 09:52:30;;;;;;;2.60;1.50;;;;;;;29.06;76.52;100442.11;181320;1258;43764;-86
2023/08/13 09:56:36;;;;;;;2.30;2.00;;;;;;;29.02;75.56;100440.56;181337;1258;44129;-86
2023/08/13 10:00:47;;;;;;;2.40;1.50;;;;;;;29.05;76.12;100440.99;181346;1257;59378;-86
2023/08/13 10:04:56;;;;;;;1.60;1.50;;;;;;;29.15;74.84;100438.42;181435;1259;43684;-86
2023/08/13 10:09:01;;;;;;;1.20;1.10;;;;;;;29.23;75.56;100442.19;181257;1257;44164;-85
2023/08/13 10:13:08;;;;;;;3.10;1.80;;;;;;;29.14;72.53;100438.36;181320;1257;44213;-85
2023/08/13 10:17:17;;;;;;;1.30;1.20;;;;;;;29.23;74.65;100439.45;181380;1259;43845;-86
2023/08/13 10:21:38;;;;;;;2.20;1.70;;;;;;;29.27;74.96;100438.10;181361;1257;58522;-85
2023/08/13 10:25:45;;;;;;;2.80;2.50;;;;;;;29.39;74.26;100436.56;181387;1256;43769;-84
2023/08/13 10:29:49;;;;;;;1.80;1.70;;;;;;;29.44;75.55;100438.95;181433;1257;43851;-85
2023/08/13 10:34:06;;;;;;;1.90;1.80;;;;;;;29.46;74.31;100434.83;181417;1256;43875;-85
2023/08/13 10:38:11;;;;;;;2.30;1.80;;;;;;;29.41;73.38;100431.98;181411;1258;43593;-85
2023/08/13 10:42:28;;;;;;;;;;;;;;;29.36;73.61;100425.31;181336;1260;61747;-85
2023/08/13 10:46:41;;;;;;;2.30;1.60;;;;;;;29.28;72.63;100428.68;181453;1256;43379;-85
2023/08/13 10:50:45;;;;;;;1.00;0.90;;;;;;;29.36;71.11;100431.07;181314;1257;43798;-85
2023/08/13 10:54:49;;;;;;;1.70;1.60;;;;;;;29.41;70.00;100426.84;181322;1257;43792;-84
2023/08/13 10:59:00;;;;;;;1.80;1.70;;;;;;;29.44;72.40;100428.98;181590;1257;43883;-85
2023/08/13 11:03:42;;;;;;;1.50;1.30;;;;;;;29.39;73.64;100431.83;181380;1257;58556;-84
2023/08/13 11:07:46;;;;;;;2.90;2.60;;;;;;;29.40;71.88;100432.29;181337;1256;43700;-87
2023/08/13 11:11:51;;;;;;;2.90;2.00;;;;;;;29.40;73.16;100425.55;181407;1257;43722;-87
2023/08/13 11:15:55;;;;;;;1.40;1.30;;;;;;;29.52;74.71;100420.95;181277;1257;43640;-86
2023/08/13 11:19:59;;;;;;;1.70;1.30;;;;;;;29.45;72.84;100422.91;181282;1257;43065;-87
2023/08/13 11:24:05;;;;;;;1.40;1.30;;;;;;;29.34;72.17;100425.52;181213;1257;58014;-87
2023/08/13 11:28:10;;;;;;;2.50;1.90;;;;;;;29.23;73.60;100421.64;181316;1257;43532;-87
2023/08/13 11:32:15;;;;;;;1.60;1.50;;;;;;;29.40;73.62;100411.80;181319;1257;43782;-86
2023/08/13 11:36:20;;;;;;;1.00;0.90;;;;;;;29.64;71.80;100402.94;181262;1257;43725;-87
2023/08/13 11:40:24;;;;;;;1.70;1.60;;;;;;;29.80;72.29;100404.43;181183;1256;44695;-87
2023/08/13 11:44:32;;;;;;;2.50;1.70;;;;;;;29.97;70.47;100404.34;181327;1256;60223;-87
2023/08/13 11:48:37;;;;;;;2.00;1.70;;;;;;;30.19;70.35;100402.96;181269;1257;44129;-87
2023/08/13 11:52:43;;;;;;;1.60;1.40;;;;;;;30.31;66.90;100399.56;181501;1257;43780;-86
2023/08/13 11:56:51;;;;;;;1.10;1.00;;;;;;;30.35;71.28;100399.86;181345;1256;43738;-86
2023/08/13 12:01:00;;;;;;;2.10;1.30;;;;;;;30.43;67.14;100397.11;181614;1257;44063;-86
2023/08/13 12:05:13;;;;;;;2.80;1.40;;;;;;;30.26;66.48;100398.73;181377;1257;60301;-87
2023/08/13 12:09:19;;;;;;;2.30;1.60;;;;;;;30.11;65.10;100396.11;181376;1256;43662;-86
2023/08/13 12:13:25;;;;;;;3.10;1.40;;;;;;;29.85;65.71;100394.20;181489;1259;43646;-86
2023/08/13 12:17:32;;;;;;;1.20;1.10;;;;;;;29.56;66.22;100392.83;181300;1257;43911;-86
2023/08/13 12:21:37;;;;;;;1.70;1.50;;;;;;;29.65;66.33;100388.38;181328;1257;43789;-86
2023/08/13 12:25:41;;;;;;;;;;;;;;;29.80;67.69;100384.69;181386;1257;58291;-86
2023/08/13 12:29:49;;;;;;;3.10;2.00;;;;;;;30.01;67.29;100385.06;181390;1256;43110;-86
2023/08/13 12:33:54;;;;;;;1.20;1.00;;;;;;;30.06;68.81;100380.30;181528;1257;43902;-86
2023/08/13 12:37:58;;;;;;;1.80;1.60;;;;;;;29.96;66.25;100380.42;181224;1259;43961;-86
2023/08/13 12:42:03;;;;;;;1.90;1.10;;;;;;;30.07;66.83;100383.72;181398;1257;43859;-85
2023/08/13 12:46:07;;;;;;;1.70;1.50;;;;;;;30.29;65.48;100381.14;181273;1256;58700;-86
2023/08/13 12:50:12;;;;;;;1.50;1.20;;;;;;;30.54;65.39;100373.20;181342;1257;44237;-86
2023/08/13 12:54:16;;;;;;;1.80;1.60;;;;;;;30.66;64.37;100369.13;181377;1257;43728;-86
2023/08/13 12:58:21;;;;;;;1.60;1.20;;;;;;;30.72;63.46;100367.38;181252;1256;43593;-86
2023/08/13 13:02:25;;;;;;;1.90;1.80;;;;;;;30.88;64.45;100366.05;181343;1256;43511;-86
2023/08/13 13:06:32;;;;;;;2.30;1.60;;;;;;;31.02;63.03;100366.05;181352;1256;57907;-86
2023/08/13 13:10:36;;;;;;;1.10;1.00;;;;;;;31.05;62.22;100367.07;181381;1256;43490;-85
2023/08/13 13:14:41;;;;;;;1.30;1.20;;;;;;;30.90;62.92;100361.01;181420;1257;43592;-86
2023/08/13 13:18:46;;;;;;;2.10;1.00;;;;;;;30.87;61.99;100362.02;181417;1256;43399;-87
2023/08/13 13:22:51;;;;;;;1.80;1.10;;;;;;;30.91;61.87;100358.44;181414;1256;43563;-87
2023/08/13 13:26:56;;;;;;;3.10;1.80;;;;;;;30.84;64.71;100353.20;181339;1256;59101;-87
2023/08/13 13:31:00;;;;;;;1.20;1.10;;;;;;;30.89;63.90;100352.66;181407;1257;44049;-87
2023/08/13 13:35:06;;;;;;;1.20;1.00;;;;;;;30.79;65.46;100356.02;181331;1256;43385;-87
2023/08/13 13:39:10;;;;;;;1.60;1.50;;;;;;;30.76;62.83;100352.14;181240;1257;44009;-86
2023/08/13 13:43:14;;;;;;;;;;;;;;;30.70;62.31;100356.98;181365;1256;43596;-86
2023/08/13 13:47:19;;;;;;;1.90;1.20;;;;;;;30.68;63.57;100350.97;181473;1256;58262;-87
2023/08/13 13:51:24;;;;;;;2.20;1.40;;;;;;;30.66;63.78;100355.79;181359;1256;43822;-87
2023/08/13 13:55:29;;;;;;;1.80;1.70;;;;;;;30.83;63.90;100347.21;181456;1256;43748;-86
2023/08/13 13:59:33;;;;;;;3.00;1.80;;;;;;;30.97;62.58;100335.42;181459;1256;44389;-86
2023/08/13 14:03:40;;;;;;;2.20;2.00;;;;;;;30.95;62.51;100332.83;181312;1259;44012;-85
2023/08/13 14:07:49;;;;;;;1.70;1.60;;;;;;;30.91;63.75;100331.05;181287;1257;59187;-87
2023/08/13 14:11:53;;;;;;;9.30;2.10;;;;;;;30.95;62.99;100323.70;181406;1257;44165;-86
2023/08/13 14:16:00;;;;;;;2.10;1.80;;;;;;;31.04;62.46;100318.52;181376;1257;43479;-86
2023/08/13 14:20:08;;;;;;;1.70;1.40;;;;;;;31.08;62.32;100312.89;181306;1259;43770;-86
2023/08/13 14:24:13;;;;;;;3.50;1.20;;;;;;;31.15;62.83;100315.15;181277;1257;43559;-87
2023/08/13 14:28:17;;;;;;;3.20;2.20;;;;;;;31.28;63.02;100318.29;181342;1257;58331;-86
2023/08/13 14:32:22;;;;;;;5.90;2.30;;;;;;;31.38;61.97;100319.23;181326;1257;43824;-86
2023/08/13 14:36:26;;;;;;;3.80;1.10;;;;;;;31.54;61.35;100307.84;181396;1260;43759;-87
2023/08/13 14:40:32;;;;;;;2.80;1.50;;;;;;;31.63;61.33;100300.80;181368;1256;43331;-87
2023/08/13 14:44:40;;;;;;;1.80;1.70;;;;;;;31.53;61.54;100301.35;181373;1257;43790;-87
2023/08/13 14:48:45;;;;;;;4.70;1.30;;;;;;;31.68;60.49;100295.43;181278;1257;58499;-87
2023/08/13 14:52:49;;;;;;;6.30;1.70;;;;;;;31.76;60.23;100290.70;181350;1257;43692;-87
2023/08/13 14:56:53;;;;;;;1.80;1.70;;;;;;;31.62;60.67;100294.96;181488;1257;43200;-87
2023/08/13 15:00:58;;;;;;;2.00;1.30;;;;;;;31.41;61.07;100296.83;181495;1256;43178;-87
2023/08/13 15:05:02;;;;;;;2.70;1.70;;;;;;;31.19;61.56;100295.07;181332;1257;43739;-88
2023/08/13 15:09:06;;;;;;;1.90;1.60;;;;;;;31.02;62.18;100298.22;181394;1257;59365;-88
2023/08/13 15:13:10;;;;;;;1.60;1.40;;;;;;;30.90;62.35;100306.38;181421;1256;43722;-87
2023/08/13 15:17:15;;;;;;;3.10;1.70;;;;;;;30.85;62.88;100302.81;181542;1256;43735;-87
2023/08/13 15:21:18;;;;;;;1.80;1.60;;;;;;;30.90;64.77;100302.37;181326;1257;44627;-87
2023/08/13 15:25:23;;;;;;;1.90;1.50;;;;;;;31.10;64.56;100298.18;181252;1257;43744;-87
2023/08/13 15:29:27;;;;;;;2.80;1.70;;;;;;;31.19;62.80;100294.53;181389;1256;59136;-87
2023/08/13 15:33:31;;;;;;;1.60;1.50;;;;;;;31.14;62.40;100288.81;181446;1257;44241;-86
2023/08/13 15:37:36;;;;;;;1.30;1.10;;;;;;;31.04;62.32;100293.45;181396;1256;43818;-86
2023/08/13 15:41:40;;;;;;;2.10;1.50;;;;;;;30.93;63.04;100288.27;181350;1257;43936;-85
2023/08/13 15:45:44;;;;;;;1.40;1.30;;;;;;;30.81;63.84;100289.33;181297;1256;43915;-85
2023/08/13 15:49:49;;;;;;;2.20;1.50;;;;;;;30.72;62.81;100279.48;181433;1256;58778;-85
2023/08/13 15:53:55;;;;;;;2.00;1.80;;;;;;;30.73;62.96;100277.52;181447;1256;43778;-86
2023/08/13 15:58:00;;;;;;;1.70;1.60;;;;;;;30.65;62.49;100277.50;181291;1257;43546;-85
2023/08/13 16:02:08;;;;;;;1.60;1.50;;;;;;;30.52;63.49;100272.63;181435;1256;43904;-85
2023/08/13 16:06:15;;;;;;;1.90;1.70;;;;;;;30.45;64.43;100275.08;181285;1256;43917;-85
2023/08/13 16:10:22;;;;;;;1.50;1.30;;;;;;;30.47;65.54;100270.70;181359;1256;58998;-86
2023/08/13 16:14:30;;;;;;;2.40;1.80;;;;;;;30.47;65.22;100268.46;181441;1256;43690;-86
2023/08/13 16:18:36;;;;;;;1.50;1.40;;;;;;;30.33;65.87;100273.64;181499;1257;43750;-85
2023/08/13 16:22:45;;;;;;;3.10;1.70;;;;;;;30.15;66.08;100272.74;181233;1257;44163;-89
2023/08/13 16:26:52;;;;;;;4.70;2.30;;;;;;;29.98;66.54;100269.46;181234;1257;43505;-88
2023/08/13 16:30:57;;;;;;;5.90;2.90;;;;;;;29.90;66.75;100263.98;181341;1257;59924;-89
2023/08/13 16:35:02;;;;;;;14.90;3.60;;;;;;;29.87;67.27;100262.02;181219;1257;43683;-89
2023/08/13 16:39:09;;;;;;;9.70;3.20;;;;;;;29.84;67.74;100264.45;181219;1257;44143;-88
2023/08/13 16:43:14;;;;;;;5.80;2.00;;;;;;;29.80;68.78;100265.17;181185;1257;43912;-89
2023/08/13 16:47:18;;;;;;;1.40;1.10;;;;;;;29.72;68.56;100267.66;181274;1257;44015;-89
2023/08/13 16:51:23;;;;;;;6.90;2.00;;;;;;;29.68;69.13;100268.21;181298;1257;60549;-88
2023/08/13 16:55:27;;;;;;;9.30;1.90;;;;;;;29.65;69.29;100263.78;181173;1257;43916;-88
2023/08/13 16:59:30;;;;;;;1.30;1.20;;;;;;;29.57;68.92;100265.27;181230;1257;43998;-88
2023/08/13 17:03:34;;;;;;;2.70;1.70;;;;;;;29.54;70.07;100268.58;181202;1257;43978;-88
2023/08/13 17:07:38;;;;;;;2.40;1.60;;;;;;;29.47;70.07;100267.27;180956;1257;305214;-89
2023/08/13 17:11:42;;;;;;;2.10;2.00;;;;;;;29.35;70.15;100266.64;181254;1256;59689;-88
2023/08/13 17:15:45;;;;;;;4.20;2.50;;;;;;;29.23;70.67;100268.55;181266;1257;44100;-89
2023/08/13 17:19:52;;;;;;;1.50;1.40;;;;;;;29.05;71.31;100270.70;181320;1256;43797;-88
2023/08/13 17:23:55;;;;;;;2.40;1.50;;;;;;;28.88;71.80;100273.53;181197;1257;44228;-88
2023/08/13 17:27:59;;;;;;;1.80;1.50;;;;;;;28.69;71.71;100266.41;181276;1257;43779;-89
2023/08/13 17:32:03;;;;;;;1.90;1.70;;;;;;;28.53;71.91;100270.23;181317;1257;60324;-89
2023/08/13 17:36:07;;;;;;;2.00;1.80;;;;;;;28.36;72.68;100271.19;181392;1257;43661;-89
2023/08/13 17:40:11;;;;;;;;;;;;;;;28.17;73.77;100270.31;181246;1257;44165;-89
2023/08/13 17:44:15;;;;;;;2.00;1.80;;;;;;;27.99;74.51;100278.27;181300;1257;43608;-89
2023/08/13 17:48:18;;;;;;;2.60;2.40;;;;;;;27.80;75.83;100280.73;181288;1256;44016;-88
2023/08/13 17:52:22;;;;;;;2.30;2.20;;;;;;;27.65;76.76;100275.06;181264;1256;57935;-89
2023/08/13 17:56:26;;;;;;;2.20;2.00;;;;;;;27.51;77.49;100281.40;181331;1256;44117;-89
2023/08/13 18:00:30;;;;;;;4.00;2.40;;;;;;;27.37;78.15;100283.27;181295;1256;44093;-89
2023/08/13 18:04:39;;;;;;;2.30;1.60;;;;;;;27.23;79.22;100285.50;181224;1257;43992;-88
2023/08/13 18:08:43;;;;;;;1.90;1.80;;;;;;;27.10;80.10;100293.33;181174;1257;44081;-88
2023/08/13 18:13:03;;;;;;;3.00;2.70;;;;;;;26.94;80.91;100293.88;181335;1256;57972;-88
2023/08/13 18:17:07;;;;;;;2.20;2.00;;;;;;;26.79;81.89;100294.46;181210;1256;46547;-88
2023/08/13 18:21:11;;;;;;;4.00;1.80;;;;;;;26.66;82.52;100296.04;181223;1256;44090;-89
2023/08/13 18:25:15;;;;;;;3.40;2.30;;;;;;;26.54;83.18;100304.44;181274;1256;43987;-89
2023/08/13 18:29:19;;;;;;;3.50;2.20;;;;;;;26.43;83.80;100301.11;181274;1257;43890;-89
2023/08/13 18:33:24;;;;;;;;;;;;;;;26.35;84.24;100306.09;181288;1257;59106;-89
2023/08/13 18:37:28;;;;;;;6.30;3.10;;;;;;;26.29;84.57;100308.64;181241;1256;43442;-89
2023/08/13 18:41:31;;;;;;;3.60;3.10;;;;;;;26.20;85.23;100314.04;181275;1256;43730;-88
2023/08/13 18:45:35;;;;;;;4.70;3.00;;;;;;;26.12;85.63;100314.81;181116;1256;44594;-88
2023/08/13 18:50:06;;;;;;;;;;;;;;;;;;;;;
2023/08/13 18:54:36;;;;;;;4.60;4.10;;;;;;;25.89;86.90;100317.86;181173;1257;59983;-89